sensor_id;sensor_type;location;lat;lon;timestamp;temperature;humidity
52073;DHT22;38074;51.232;6.826;2022-07-29T00:01:33;26.40;42.70
52073;DHT22;38074;51.232;6.826;2022-07-29T00:08:48;26.40;42.80
52073;DHT22;38074;51.232;6.826;2022-07-29T00:16:04;26.40;42.80
52073;DHT22;38074;51.232;6.826;2022-07-29T00:23:19;26.40;42.80
52073;DHT22;38074;51.232;6.826;2022-07-29T00:30:35;26.40;42.70
52073;DHT22;38074;51.232;6.826;2022-07-29T00:37:51;26.40;42.70
52073;DHT22;38074;51.232;6.826;2022-07-29T00:45:06;26.30;42.70
52073;DHT22;38074;51.232;6.826;2022-07-29T00:52:22;26.30;42.70
52073;DHT22;38074;51.232;6.826;2022-07-29T00:59:37;26.30;42.60
52073;DHT22;38074;51.232;6.826;2022-07-29T01:06:54;26.40;42.80
52073;DHT22;38074;51.232;6.826;2022-07-29T01:14:10;26.40;42.70
52073;DHT22;38074;51.232;6.826;2022-07-29T01:21:47;26.40;42.70
52073;DHT22;38074;51.232;6.826;2022-07-29T01:29:12;26.30;42.70
52073;DHT22;38074;51.232;6.826;2022-07-29T01:36:48;26.40;42.80
52073;DHT22;38074;51.232;6.826;2022-07-29T01:44:22;26.30;42.70
52073;DHT22;38074;51.232;6.826;2022-07-29T01:52:01;26.30;42.60
52073;DHT22;38074;51.232;6.826;2022-07-29T01:59:20;26.30;42.70
52073;DHT22;38074;51.232;6.826;2022-07-29T02:06:38;26.30;42.60
52073;DHT22;38074;51.232;6.826;2022-07-29T02:13:56;26.30;42.70
52073;DHT22;38074;51.232;6.826;2022-07-29T02:21:13;26.30;42.70
52073;DHT22;38074;51.232;6.826;2022-07-29T02:28:34;26.30;42.70
52073;DHT22;38074;51.232;6.826;2022-07-29T02:35:50;26.30;42.80
52073;DHT22;38074;51.232;6.826;2022-07-29T02:43:06;26.30;42.80
52073;DHT22;38074;51.232;6.826;2022-07-29T02:50:37;26.30;42.80
52073;DHT22;38074;51.232;6.826;2022-07-29T02:58:05;26.30;42.80
52073;DHT22;38074;51.232;6.826;2022-07-29T03:05:22;26.30;42.90
52073;DHT22;38074;51.232;6.826;2022-07-29T03:12:38;26.30;42.70
52073;DHT22;38074;51.232;6.826;2022-07-29T03:19:55;26.30;42.80
52073;DHT22;38074;51.232;6.826;2022-07-29T03:27:10;26.30;42.90
52073;DHT22;38074;51.232;6.826;2022-07-29T03:34:26;26.30;42.80
52073;DHT22;38074;51.232;6.826;2022-07-29T03:41:42;26.30;42.80
52073;DHT22;38074;51.232;6.826;2022-07-29T03:49:01;26.30;42.90
52073;DHT22;38074;51.232;6.826;2022-07-29T03:56:21;26.30;42.90
52073;DHT22;38074;51.232;6.826;2022-07-29T04:03:38;26.30;43.00
52073;DHT22;38074;51.232;6.826;2022-07-29T04:10:54;26.30;43.10
52073;DHT22;38074;51.232;6.826;2022-07-29T04:18:09;26.30;43.20
52073;DHT22;38074;51.232;6.826;2022-07-29T04:25:25;26.30;43.30
52073;DHT22;38074;51.232;6.826;2022-07-29T04:32:40;26.30;43.50
52073;DHT22;38074;51.232;6.826;2022-07-29T04:39:56;26.30;43.40
52073;DHT22;38074;51.232;6.826;2022-07-29T04:47:11;26.30;43.70
52073;DHT22;38074;51.232;6.826;2022-07-29T04:54:27;26.30;43.60
52073;DHT22;38074;51.232;6.826;2022-07-29T05:01:42;26.30;43.80
52073;DHT22;38074;51.232;6.826;2022-07-29T05:08:58;26.30;43.80
52073;DHT22;38074;51.232;6.826;2022-07-29T05:16:14;26.30;43.90
52073;DHT22;38074;51.232;6.826;2022-07-29T05:23:29;26.30;44.00
52073;DHT22;38074;51.232;6.826;2022-07-29T05:30:45;26.30;44.10
52073;DHT22;38074;51.232;6.826;2022-07-29T05:38:00;26.30;44.20
52073;DHT22;38074;51.232;6.826;2022-07-29T05:45:16;26.30;44.10
52073;DHT22;38074;51.232;6.826;2022-07-29T05:52:31;26.30;44.20
52073;DHT22;38074;51.232;6.826;2022-07-29T05:59:48;26.30;44.20
52073;DHT22;38074;51.232;6.826;2022-07-29T06:07:04;26.30;44.30
52073;DHT22;38074;51.232;6.826;2022-07-29T06:14:20;26.40;44.40
52073;DHT22;38074;51.232;6.826;2022-07-29T06:21:36;26.30;44.40
52073;DHT22;38074;51.232;6.826;2022-07-29T06:28:51;26.30;44.40
52073;DHT22;38074;51.232;6.826;2022-07-29T06:36:07;26.30;44.50
52073;DHT22;38074;51.232;6.826;2022-07-29T06:43:23;26.30;44.50
52073;DHT22;38074;51.232;6.826;2022-07-29T06:50:38;26.30;44.50
52073;DHT22;38074;51.232;6.826;2022-07-29T06:57:54;26.30;44.60
52073;DHT22;38074;51.232;6.826;2022-07-29T07:05:10;26.30;44.60
52073;DHT22;38074;51.232;6.826;2022-07-29T07:12:25;26.30;44.70
52073;DHT22;38074;51.232;6.826;2022-07-29T07:19:41;26.30;44.70
52073;DHT22;38074;51.232;6.826;2022-07-29T07:26:56;26.30;44.80
52073;DHT22;38074;51.232;6.826;2022-07-29T07:34:12;26.30;44.80
52073;DHT22;38074;51.232;6.826;2022-07-29T07:41:28;26.30;44.90
52073;DHT22;38074;51.232;6.826;2022-07-29T07:48:43;26.30;45.10
52073;DHT22;38074;51.232;6.826;2022-07-29T07:56:00;26.30;45.20
52073;DHT22;38074;51.232;6.826;2022-07-29T08:03:15;26.30;45.30
52073;DHT22;38074;51.232;6.826;2022-07-29T08:10:31;26.30;45.30
52073;DHT22;38074;51.232;6.826;2022-07-29T08:18:05;26.30;45.30
52073;DHT22;38074;51.232;6.826;2022-07-29T08:25:21;26.30;45.50
52073;DHT22;38074;51.232;6.826;2022-07-29T08:32:36;26.30;45.50
52073;DHT22;38074;51.232;6.826;2022-07-29T08:39:52;26.30;45.60
52073;DHT22;38074;51.232;6.826;2022-07-29T08:47:07;26.30;46.00
52073;DHT22;38074;51.232;6.826;2022-07-29T08:54:23;26.30;46.80
52073;DHT22;38074;51.232;6.826;2022-07-29T09:01:40;26.30;47.60
52073;DHT22;38074;51.232;6.826;2022-07-29T09:08:59;26.30;48.70
52073;DHT22;38074;51.232;6.826;2022-07-29T09:16:14;26.30;48.70
52073;DHT22;38074;51.232;6.826;2022-07-29T09:23:30;26.30;49.10
52073;DHT22;38074;51.232;6.826;2022-07-29T09:30:57;26.20;49.20
52073;DHT22;38074;51.232;6.826;2022-07-29T09:38:16;26.30;49.30
52073;DHT22;38074;51.232;6.826;2022-07-29T09:45:33;26.30;49.40
52073;DHT22;38074;51.232;6.826;2022-07-29T09:52:50;26.30;49.40
52073;DHT22;38074;51.232;6.826;2022-07-29T10:00:15;26.10;49.50
52073;DHT22;38074;51.232;6.826;2022-07-29T10:07:51;26.10;49.70
52073;DHT22;38074;51.232;6.826;2022-07-29T10:15:07;26.10;49.60
52073;DHT22;38074;51.232;6.826;2022-07-29T10:22:24;26.10;49.80
52073;DHT22;38074;51.232;6.826;2022-07-29T10:29:39;26.10;49.40
52073;DHT22;38074;51.232;6.826;2022-07-29T10:44:21;26.20;49.60
52073;DHT22;38074;51.232;6.826;2022-07-29T10:52:06;26.10;49.70
52073;DHT22;38074;51.232;6.826;2022-07-29T10:59:22;26.10;49.40
52073;DHT22;38074;51.232;6.826;2022-07-29T11:14:13;26.00;49.60
52073;DHT22;38074;51.232;6.826;2022-07-29T11:21:35;25.60;49.30
52073;DHT22;38074;51.232;6.826;2022-07-29T11:29:02;25.60;49.90
52073;DHT22;38074;51.232;6.826;2022-07-29T11:36:18;25.60;49.80
52073;DHT22;38074;51.232;6.826;2022-07-29T11:43:57;25.80;49.50
52073;DHT22;38074;51.232;6.826;2022-07-29T11:51:13;25.90;49.40
52073;DHT22;38074;51.232;6.826;2022-07-29T11:58:29;26.00;49.50
52073;DHT22;38074;51.232;6.826;2022-07-29T12:05:45;26.00;49.30
52073;DHT22;38074;51.232;6.826;2022-07-29T12:13:00;26.00;49.20
52073;DHT22;38074;51.232;6.826;2022-07-29T12:27:39;26.00;49.00
52073;DHT22;38074;51.232;6.826;2022-07-29T12:34:55;26.00;49.10
52073;DHT22;38074;51.232;6.826;2022-07-29T12:42:14;26.10;49.10
52073;DHT22;38074;51.232;6.826;2022-07-29T12:49:30;26.10;49.00
52073;DHT22;38074;51.232;6.826;2022-07-29T12:56:58;26.10;48.90
52073;DHT22;38074;51.232;6.826;2022-07-29T13:04:25;26.10;48.90
52073;DHT22;38074;51.232;6.826;2022-07-29T13:11:45;26.10;48.80
52073;DHT22;38074;51.232;6.826;2022-07-29T13:19:09;26.10;48.90
52073;DHT22;38074;51.232;6.826;2022-07-29T13:26:25;26.10;48.80
52073;DHT22;38074;51.232;6.826;2022-07-29T13:33:41;26.10;48.80
52073;DHT22;38074;51.232;6.826;2022-07-29T13:40:56;26.10;48.70
52073;DHT22;38074;51.232;6.826;2022-07-29T13:48:12;26.10;48.80
52073;DHT22;38074;51.232;6.826;2022-07-29T13:55:27;26.10;48.80
52073;DHT22;38074;51.232;6.826;2022-07-29T14:02:43;26.10;48.70
52073;DHT22;38074;51.232;6.826;2022-07-29T14:09:58;26.10;48.70
52073;DHT22;38074;51.232;6.826;2022-07-29T14:17:14;26.10;48.70
52073;DHT22;38074;51.232;6.826;2022-07-29T14:24:30;26.10;49.30
52073;DHT22;38074;51.232;6.826;2022-07-29T14:31:46;26.10;48.60
52073;DHT22;38074;51.232;6.826;2022-07-29T14:39:01;26.10;48.60
52073;DHT22;38074;51.232;6.826;2022-07-29T14:46:17;26.20;48.60
52073;DHT22;38074;51.232;6.826;2022-07-29T14:53:33;26.10;48.60
52073;DHT22;38074;51.232;6.826;2022-07-29T15:00:48;26.10;48.60
52073;DHT22;38074;51.232;6.826;2022-07-29T15:08:04;26.10;48.50
52073;DHT22;38074;51.232;6.826;2022-07-29T15:22:37;26.10;48.50
52073;DHT22;38074;51.232;6.826;2022-07-29T15:29:53;26.10;48.40
52073;DHT22;38074;51.232;6.826;2022-07-29T15:37:08;26.20;48.40
52073;DHT22;38074;51.232;6.826;2022-07-29T15:44:26;26.10;48.40
52073;DHT22;38074;51.232;6.826;2022-07-29T15:51:41;26.10;48.40
52073;DHT22;38074;51.232;6.826;2022-07-29T15:58:57;26.10;48.30
52073;DHT22;38074;51.232;6.826;2022-07-29T16:06:13;26.10;48.20
52073;DHT22;38074;51.232;6.826;2022-07-29T16:13:28;26.20;48.30
52073;DHT22;38074;51.232;6.826;2022-07-29T16:20:44;26.10;48.10
52073;DHT22;38074;51.232;6.826;2022-07-29T16:27:59;26.10;48.10
52073;DHT22;38074;51.232;6.826;2022-07-29T16:35:15;26.10;48.00
52073;DHT22;38074;51.232;6.826;2022-07-29T16:42:31;26.10;47.90
52073;DHT22;38074;51.232;6.826;2022-07-29T16:49:46;26.10;47.90
52073;DHT22;38074;51.232;6.826;2022-07-29T16:57:02;26.10;47.80
52073;DHT22;38074;51.232;6.826;2022-07-29T17:04:17;26.10;47.70
52073;DHT22;38074;51.232;6.826;2022-07-29T17:11:33;26.10;47.60
52073;DHT22;38074;51.232;6.826;2022-07-29T17:18:50;26.10;47.50
52073;DHT22;38074;51.232;6.826;2022-07-29T17:26:06;26.10;47.60
52073;DHT22;38074;51.232;6.826;2022-07-29T17:33:22;26.10;47.50
52073;DHT22;38074;51.232;6.826;2022-07-29T17:40:37;26.10;47.50
52073;DHT22;38074;51.232;6.826;2022-07-29T17:47:53;26.10;47.50
52073;DHT22;38074;51.232;6.826;2022-07-29T17:55:08;26.20;47.50
52073;DHT22;38074;51.232;6.826;2022-07-29T18:02:24;26.10;47.40
52073;DHT22;38074;51.232;6.826;2022-07-29T18:09:40;26.10;47.50
52073;DHT22;38074;51.232;6.826;2022-07-29T18:16:55;26.20;47.50
52073;DHT22;38074;51.232;6.826;2022-07-29T18:24:11;26.20;47.50
52073;DHT22;38074;51.232;6.826;2022-07-29T18:31:26;26.20;47.50
52073;DHT22;38074;51.232;6.826;2022-07-29T18:38:42;26.20;47.50
52073;DHT22;38074;51.232;6.826;2022-07-29T18:45:58;26.20;47.50
52073;DHT22;38074;51.232;6.826;2022-07-29T18:53:13;26.10;47.40
52073;DHT22;38074;51.232;6.826;2022-07-29T19:00:29;26.20;47.50
52073;DHT22;38074;51.232;6.826;2022-07-29T19:07:44;26.20;47.50
52073;DHT22;38074;51.232;6.826;2022-07-29T19:15:00;26.20;47.50
52073;DHT22;38074;51.232;6.826;2022-07-29T19:22:15;26.10;47.40
52073;DHT22;38074;51.232;6.826;2022-07-29T19:29:31;26.20;47.50
52073;DHT22;38074;51.232;6.826;2022-07-29T19:36:47;26.20;47.50
52073;DHT22;38074;51.232;6.826;2022-07-29T19:44:03;26.20;47.50
52073;DHT22;38074;51.232;6.826;2022-07-29T19:51:18;26.20;47.50
52073;DHT22;38074;51.232;6.826;2022-07-29T19:58:34;26.20;47.50
52073;DHT22;38074;51.232;6.826;2022-07-29T20:05:49;26.20;47.50
52073;DHT22;38074;51.232;6.826;2022-07-29T20:13:06;26.20;47.60
52073;DHT22;38074;51.232;6.826;2022-07-29T20:20:22;26.20;47.50
52073;DHT22;38074;51.232;6.826;2022-07-29T20:27:37;26.20;47.60
52073;DHT22;38074;51.232;6.826;2022-07-29T20:34:57;26.20;47.70
52073;DHT22;38074;51.232;6.826;2022-07-29T20:42:13;26.20;47.80
52073;DHT22;38074;51.232;6.826;2022-07-29T20:49:29;26.20;47.80
52073;DHT22;38074;51.232;6.826;2022-07-29T20:56:45;26.20;47.80
52073;DHT22;38074;51.232;6.826;2022-07-29T21:04:00;26.20;47.90
52073;DHT22;38074;51.232;6.826;2022-07-29T21:11:17;26.20;48.00
52073;DHT22;38074;51.232;6.826;2022-07-29T21:18:32;26.20;47.90
52073;DHT22;38074;51.232;6.826;2022-07-29T21:25:52;26.20;48.00
52073;DHT22;38074;51.232;6.826;2022-07-29T21:33:08;26.20;48.00
52073;DHT22;38074;51.232;6.826;2022-07-29T21:40:23;26.20;47.90
52073;DHT22;38074;51.232;6.826;2022-07-29T21:47:39;26.20;48.10
52073;DHT22;38074;51.232;6.826;2022-07-29T21:54:54;26.20;48.20
52073;DHT22;38074;51.232;6.826;2022-07-29T22:02:10;26.20;48.30
52073;DHT22;38074;51.232;6.826;2022-07-29T22:09:26;26.20;48.30
52073;DHT22;38074;51.232;6.826;2022-07-29T22:16:41;26.20;48.40
52073;DHT22;38074;51.232;6.826;2022-07-29T22:23:57;26.20;48.50
52073;DHT22;38074;51.232;6.826;2022-07-29T22:31:12;26.20;48.50
52073;DHT22;38074;51.232;6.826;2022-07-29T22:38:28;26.20;48.60
52073;DHT22;38074;51.232;6.826;2022-07-29T22:45:43;26.20;48.60
52073;DHT22;38074;51.232;6.826;2022-07-29T22:52:59;26.20;48.50
52073;DHT22;38074;51.232;6.826;2022-07-29T23:00:14;26.20;48.60
52073;DHT22;38074;51.232;6.826;2022-07-29T23:07:30;26.20;48.70
52073;DHT22;38074;51.232;6.826;2022-07-29T23:14:45;26.20;48.60
52073;DHT22;38074;51.232;6.826;2022-07-29T23:22:01;26.20;48.80
52073;DHT22;38074;51.232;6.826;2022-07-29T23:29:16;26.20;48.70
52073;DHT22;38074;51.232;6.826;2022-07-29T23:36:32;26.20;48.80
52073;DHT22;38074;51.232;6.826;2022-07-29T23:43:48;26.20;48.80
52073;DHT22;38074;51.232;6.826;2022-07-29T23:51:04;26.20;48.80
52073;DHT22;38074;51.232;6.826;2022-07-29T23:58:19;26.20;48.80
